createdAt,value
2023-04-16T00:00:06.667Z,99042.00
2023-04-16T00:01:06.693Z,99043.00
2023-04-16T00:02:06.788Z,99044.00
2023-04-16T00:03:06.972Z,99042.00
2023-04-16T00:04:06.945Z,99046.00
2023-04-16T00:05:06.761Z,99043.00
2023-04-16T00:06:06.763Z,99046.00
2023-04-16T00:07:06.776Z,99048.00
2023-04-16T00:08:06.758Z,99046.00
2023-04-16T00:09:06.894Z,99049.00
2023-04-16T00:10:06.801Z,99047.00
2023-04-16T00:11:06.803Z,99049.00
2023-04-16T00:12:06.819Z,99045.00
2023-04-16T00:13:06.839Z,99047.00
2023-04-16T00:14:06.868Z,99045.00
2023-04-16T00:15:06.892Z,99045.00
2023-04-16T00:16:06.913Z,99042.00
2023-04-16T00:17:07.052Z,99048.00
2023-04-16T00:18:06.948Z,99051.00
2023-04-16T00:19:07.183Z,99052.00
2023-04-16T00:20:06.981Z,99053.00
2023-04-16T00:21:07.006Z,99052.00
2023-04-16T00:22:07.094Z,99055.00
2023-04-16T00:23:07.018Z,99053.00
2023-04-16T00:24:07.017Z,99050.00
2023-04-16T00:25:07.069Z,99051.00
2023-04-16T00:26:07.042Z,99053.00
2023-04-16T00:27:07.042Z,99054.00
2023-04-16T00:28:07.220Z,99053.00
2023-04-16T00:29:07.232Z,99052.00
2023-04-16T00:30:07.120Z,99053.00
2023-04-16T00:31:07.141Z,99053.00
2023-04-16T00:32:07.127Z,99050.00
2023-04-16T00:33:07.153Z,99051.00
2023-04-16T00:34:07.182Z,99050.00
2023-04-16T00:35:07.214Z,99057.00
2023-04-16T00:36:07.191Z,99058.00
2023-04-16T00:37:07.221Z,99055.00
2023-04-16T00:38:07.239Z,99055.00
2023-04-16T00:39:07.451Z,99056.00
2023-04-16T00:40:07.244Z,99051.00
2023-04-16T00:41:07.271Z,99053.00
2023-04-16T00:42:07.280Z,99054.00
2023-04-16T00:43:07.302Z,99053.00
2023-04-16T00:44:07.343Z,99055.00
2023-04-16T00:45:07.348Z,99054.00
2023-04-16T00:46:07.392Z,99052.00
2023-04-16T00:47:07.367Z,99054.00
2023-04-16T00:48:07.387Z,99054.00
2023-04-16T00:49:07.512Z,99049.00
2023-04-16T00:50:07.404Z,99055.00
2023-04-16T00:51:07.442Z,99050.00
2023-04-16T00:52:07.465Z,99052.00
2023-04-16T00:53:07.489Z,99053.00
2023-04-16T00:54:07.530Z,99054.00
2023-04-16T00:55:07.550Z,99059.00
2023-04-16T00:56:07.530Z,99054.00
2023-04-16T00:57:07.551Z,99055.00
2023-04-16T00:58:07.577Z,99048.00
2023-04-16T00:59:08.012Z,99052.00
2023-04-16T01:00:07.585Z,99055.00
2023-04-16T01:01:07.613Z,99053.00
2023-04-16T01:02:07.750Z,99054.00
2023-04-16T01:03:07.698Z,99051.00
2023-04-16T01:04:07.693Z,99054.00
2023-04-16T01:05:07.614Z,99052.00
2023-04-16T01:06:07.629Z,99055.00
2023-04-16T01:07:07.655Z,99051.00
2023-04-16T01:08:07.642Z,99053.00
2023-04-16T01:09:07.976Z,99054.00
2023-04-16T01:10:07.690Z,99056.00
2023-04-16T01:11:07.700Z,99053.00
2023-04-16T01:12:07.679Z,99055.00
2023-04-16T01:13:07.689Z,99053.00
2023-04-16T01:14:07.723Z,99058.00
2023-04-16T01:15:07.730Z,99052.00
2023-04-16T01:16:07.921Z,99056.00
2023-04-16T01:17:07.754Z,99061.00
2023-04-16T01:18:07.773Z,99057.00
2023-04-16T01:19:08.133Z,99065.00
2023-04-16T01:20:07.780Z,99069.00
2023-04-16T01:21:07.842Z,99067.00
2023-04-16T01:22:07.821Z,99070.00
2023-04-16T01:23:07.836Z,99066.00
2023-04-16T01:24:07.862Z,99069.00
2023-04-16T01:25:07.903Z,99061.00
2023-04-16T01:26:07.921Z,99062.00
2023-04-16T01:27:07.898Z,99060.00
2023-04-16T01:28:07.868Z,99063.00
2023-04-16T01:29:08.180Z,99063.00
2023-04-16T01:30:07.916Z,99063.00
2023-04-16T01:31:08.088Z,99061.00
2023-04-16T01:32:07.959Z,99068.00
2023-04-16T01:33:07.985Z,99065.00
2023-04-16T01:34:08.008Z,99068.00
2023-04-16T01:35:08.026Z,99070.00
2023-04-16T01:36:08.060Z,99067.00
2023-04-16T01:37:08.063Z,99071.00
2023-04-16T01:38:08.090Z,99071.00
2023-04-16T01:39:08.305Z,99068.00
2023-04-16T01:40:08.134Z,99067.00
2023-04-16T01:41:08.164Z,99065.00
2023-04-16T01:42:08.190Z,99073.00
2023-04-16T01:43:08.166Z,99072.00
2023-04-16T01:44:08.173Z,99077.00
2023-04-16T01:45:08.195Z,99071.00
2023-04-16T01:46:08.214Z,99068.00
2023-04-16T01:47:08.236Z,99079.00
2023-04-16T01:48:08.281Z,99074.00
2023-04-16T01:49:08.538Z,99074.00
2023-04-16T01:50:08.301Z,99077.00
2023-04-16T01:51:08.326Z,99076.00
2023-04-16T01:52:08.333Z,99075.00
2023-04-16T01:53:08.363Z,99073.00
2023-04-16T01:54:08.387Z,99080.00
2023-04-16T01:55:08.399Z,99078.00
2023-04-16T01:56:08.432Z,99084.00
2023-04-16T01:57:08.458Z,99083.00
2023-04-16T01:58:08.503Z,99077.00
2023-04-16T01:59:08.757Z,99083.00
2023-04-16T02:00:08.492Z,99081.00
2023-04-16T02:01:08.575Z,99078.00
2023-04-16T02:02:08.674Z,99085.00
2023-04-16T02:03:08.662Z,99081.00
2023-04-16T02:04:08.601Z,99082.00
2023-04-16T02:05:08.539Z,99082.00
2023-04-16T02:06:08.560Z,99082.00
2023-04-16T02:07:08.589Z,99079.00
2023-04-16T02:08:08.637Z,99081.00
2023-04-16T02:09:08.751Z,99076.00
2023-04-16T02:10:08.657Z,99076.00
2023-04-16T02:11:08.878Z,99079.00
2023-04-16T02:12:08.665Z,99076.00
2023-04-16T02:13:08.667Z,99077.00
2023-04-16T02:14:08.754Z,99077.00
2023-04-16T02:15:08.685Z,99073.00
2023-04-16T02:16:08.736Z,99071.00
2023-04-16T02:17:08.733Z,99075.00
2023-04-16T02:18:08.894Z,99074.00
2023-04-16T02:19:08.901Z,99077.00
2023-04-16T02:20:08.695Z,99076.00
2023-04-16T02:21:08.726Z,99076.00
2023-04-16T02:22:08.733Z,99075.00
2023-04-16T02:23:08.749Z,99077.00
2023-04-16T02:24:08.750Z,99077.00
2023-04-16T02:25:08.784Z,99075.00
2023-04-16T02:26:08.807Z,99078.00
2023-04-16T02:27:08.822Z,99078.00
2023-04-16T02:28:08.853Z,99076.00
2023-04-16T02:29:09.074Z,99076.00
2023-04-16T02:30:08.891Z,99081.00
2023-04-16T02:31:08.850Z,99079.00
2023-04-16T02:32:09.018Z,99077.00
2023-04-16T02:33:08.878Z,99084.00
2023-04-16T02:34:08.894Z,99081.00
2023-04-16T02:35:08.908Z,99084.00
2023-04-16T02:36:08.931Z,99081.00
2023-04-16T02:37:08.944Z,99082.00
2023-04-16T02:38:08.957Z,99084.00
2023-04-16T02:39:09.260Z,99081.00
2023-04-16T02:40:09.021Z,99085.00
2023-04-16T02:41:09.017Z,99086.00
2023-04-16T02:42:09.045Z,99081.00
2023-04-16T02:43:09.056Z,99081.00
2023-04-16T02:44:09.075Z,99084.00
2023-04-16T02:45:09.059Z,99085.00
2023-04-16T02:46:09.131Z,99086.00
2023-04-16T02:47:09.048Z,99087.00
2023-04-16T02:48:09.074Z,99087.00
2023-04-16T02:49:09.350Z,99085.00
2023-04-16T02:50:09.126Z,99088.00
2023-04-16T02:51:09.113Z,99087.00
2023-04-16T02:52:09.112Z,99089.00
2023-04-16T02:53:09.120Z,99091.00
2023-04-16T02:54:09.143Z,99090.00
2023-04-16T02:55:09.166Z,99090.00
2023-04-16T02:56:09.174Z,99093.00
2023-04-16T02:57:09.201Z,99092.00
2023-04-16T02:58:09.224Z,99088.00
2023-04-16T02:59:09.431Z,99094.00
2023-04-16T03:00:09.280Z,99093.00
2023-04-16T03:01:09.367Z,99093.00
2023-04-16T03:02:09.327Z,99091.00
2023-04-16T03:03:09.323Z,99094.00
2023-04-16T03:04:09.323Z,99091.00
2023-04-16T03:05:09.323Z,99096.00
2023-04-16T03:06:09.347Z,99089.00
2023-04-16T03:07:09.371Z,99085.00
2023-04-16T03:08:09.386Z,99095.00
2023-04-16T03:09:09.609Z,99092.00
2023-04-16T03:10:09.469Z,99091.00
2023-04-16T03:11:09.431Z,99092.00
2023-04-16T03:12:09.457Z,99092.00
2023-04-16T03:13:09.465Z,99093.00
2023-04-16T03:14:09.493Z,99092.00
2023-04-16T03:15:09.506Z,99093.00
2023-04-16T03:16:09.517Z,99093.00
2023-04-16T03:17:09.500Z,99093.00
2023-04-16T03:18:09.538Z,99092.00
2023-04-16T03:19:09.758Z,99092.00
2023-04-16T03:20:09.523Z,99092.00
2023-04-16T03:21:09.541Z,99100.00
2023-04-16T03:22:09.552Z,99096.00
2023-04-16T03:23:09.617Z,99095.00
2023-04-16T03:24:09.571Z,99100.00
2023-04-16T03:25:09.600Z,99101.00
2023-04-16T03:26:09.631Z,99098.00
2023-04-16T03:27:09.656Z,99099.00
2023-04-16T03:28:09.684Z,99101.00
2023-04-16T03:29:09.895Z,99101.00
2023-04-16T03:30:09.711Z,99107.00
2023-04-16T03:31:09.751Z,99102.00
2023-04-16T03:32:09.732Z,99104.00
2023-04-16T03:33:09.760Z,99106.00
2023-04-16T03:34:09.925Z,99110.00
2023-04-16T03:35:09.804Z,99107.00
2023-04-16T03:36:09.823Z,99107.00
2023-04-16T03:37:09.836Z,99106.00
2023-04-16T03:38:09.863Z,99106.00
2023-04-16T03:39:10.118Z,99114.00
2023-04-16T03:40:09.903Z,99118.00
2023-04-16T03:41:09.913Z,99115.00
2023-04-16T03:42:09.935Z,99114.00
2023-04-16T03:43:09.933Z,99116.00
2023-04-16T03:44:09.943Z,99115.00
2023-04-16T03:45:09.967Z,99118.00
2023-04-16T03:46:10.052Z,99113.00
2023-04-16T03:47:10.012Z,99120.00
2023-04-16T03:48:10.033Z,99118.00
2023-04-16T03:49:10.194Z,99117.00
2023-04-16T03:50:10.087Z,99117.00
2023-04-16T03:51:10.041Z,99122.00
2023-04-16T03:52:10.070Z,99122.00
2023-04-16T03:53:10.084Z,99120.00
2023-04-16T03:54:10.123Z,99116.00
2023-04-16T03:55:10.150Z,99121.00
2023-04-16T03:56:10.166Z,99122.00
2023-04-16T03:57:10.186Z,99121.00
2023-04-16T03:58:10.229Z,99119.00
2023-04-16T03:59:10.342Z,99126.00
2023-04-16T04:00:10.231Z,99123.00
2023-04-16T04:01:10.245Z,99127.00
2023-04-16T04:02:10.328Z,99127.00
2023-04-16T04:03:10.505Z,99129.00
2023-04-16T04:04:10.464Z,99128.00
2023-04-16T04:05:10.439Z,99128.00
2023-04-16T04:06:10.305Z,99129.00
2023-04-16T04:07:10.268Z,99130.00
2023-04-16T04:08:10.294Z,99128.00
2023-04-16T04:09:10.495Z,99131.00
2023-04-16T04:10:10.312Z,99128.00
2023-04-16T04:11:10.330Z,99132.00
2023-04-16T04:12:11.043Z,99128.00
2023-04-16T04:13:10.556Z,99131.00
2023-04-16T04:14:10.398Z,99135.00
2023-04-16T04:15:10.406Z,99134.00
2023-04-16T04:16:10.471Z,99135.00
2023-04-16T04:17:10.430Z,99134.00
2023-04-16T04:18:10.434Z,99136.00
2023-04-16T04:19:10.702Z,99138.00
2023-04-16T04:20:10.477Z,99140.00
2023-04-16T04:21:10.482Z,99139.00
2023-04-16T04:22:10.533Z,99137.00
2023-04-16T04:23:10.495Z,99139.00
2023-04-16T04:24:10.503Z,99137.00
2023-04-16T04:25:10.539Z,99137.00
2023-04-16T04:26:10.590Z,99138.00
2023-04-16T04:27:10.533Z,99140.00
2023-04-16T04:28:10.576Z,99139.00
2023-04-16T04:29:10.834Z,99139.00
2023-04-16T04:30:10.584Z,99145.00
2023-04-16T04:31:10.623Z,99144.00
2023-04-16T04:32:10.625Z,99146.00
2023-04-16T04:33:10.636Z,99146.00
2023-04-16T04:34:10.675Z,99144.00
2023-04-16T04:35:10.629Z,99146.00
2023-04-16T04:36:10.673Z,99147.00
2023-04-16T04:37:10.632Z,99145.00
2023-04-16T04:38:10.671Z,99148.00
2023-04-16T04:39:10.978Z,99144.00
2023-04-16T04:40:10.703Z,99143.00
2023-04-16T04:41:10.707Z,99145.00
2023-04-16T04:42:10.720Z,99146.00
2023-04-16T04:43:10.744Z,99148.00
2023-04-16T04:44:10.893Z,99151.00
2023-04-16T04:45:10.769Z,99148.00
2023-04-16T04:46:10.838Z,99154.00
2023-04-16T04:47:10.787Z,99149.00
2023-04-16T04:48:10.806Z,99149.00
2023-04-16T04:49:11.119Z,99150.00
2023-04-16T04:50:10.846Z,99151.00
2023-04-16T04:51:10.880Z,99151.00
2023-04-16T04:52:10.878Z,99151.00
2023-04-16T04:53:10.910Z,99153.00
2023-04-16T04:54:10.956Z,99158.00
2023-04-16T04:55:10.980Z,99157.00
2023-04-16T04:56:12.835Z,99155.00
2023-04-16T04:57:10.945Z,99158.00
2023-04-16T04:58:10.987Z,99161.00
2023-04-16T04:59:11.216Z,99157.00
2023-04-16T05:00:10.988Z,99159.00
2023-04-16T05:01:11.028Z,99159.00
2023-04-16T05:02:11.026Z,99164.00
2023-04-16T05:03:11.302Z,99165.00
2023-04-16T05:04:11.262Z,99161.00
2023-04-16T05:05:11.089Z,99162.00
2023-04-16T05:06:11.061Z,99164.00
2023-04-16T05:07:11.081Z,99166.00
2023-04-16T05:08:11.096Z,99168.00
2023-04-16T05:09:11.379Z,99167.00
2023-04-16T05:10:11.144Z,99169.00
2023-04-16T05:11:11.117Z,99168.00
2023-04-16T05:12:11.108Z,99171.00
2023-04-16T05:13:11.124Z,99169.00
2023-04-16T05:14:11.161Z,99170.00
2023-04-16T05:15:11.172Z,99170.00
2023-04-16T05:16:11.171Z,99173.00
2023-04-16T05:17:11.143Z,99175.00
2023-04-16T05:18:11.444Z,99173.00
2023-04-16T05:19:11.454Z,99174.00
2023-04-16T05:20:11.225Z,99163.00
2023-04-16T05:21:11.213Z,99173.00
2023-04-16T05:22:11.206Z,99170.00
2023-04-16T05:23:11.224Z,99174.00
2023-04-16T05:24:12.067Z,99176.00
2023-04-16T05:25:11.271Z,99178.00
2023-04-16T05:26:11.317Z,99178.00
2023-04-16T05:27:11.319Z,99179.00
2023-04-16T05:28:11.368Z,99178.00
2023-04-16T05:29:11.604Z,99180.00
2023-04-16T05:30:11.354Z,99181.00
2023-04-16T05:31:11.383Z,99178.00
2023-04-16T05:32:11.318Z,99186.00
2023-04-16T05:33:11.336Z,99189.00
2023-04-16T05:34:11.348Z,99188.00
2023-04-16T05:35:11.339Z,99187.00
2023-04-16T05:36:11.369Z,99185.00
2023-04-16T05:37:11.390Z,99193.00
2023-04-16T05:38:11.426Z,99192.00
2023-04-16T05:39:11.645Z,99194.00
2023-04-16T05:40:11.437Z,99194.00
2023-04-16T05:41:11.462Z,99195.00
2023-04-16T05:42:11.510Z,99195.00
2023-04-16T05:43:11.457Z,99198.00
2023-04-16T05:44:11.481Z,99201.00
2023-04-16T05:45:11.472Z,99199.00
2023-04-16T05:46:11.511Z,99200.00
2023-04-16T05:47:11.490Z,99199.00
2023-04-16T05:48:11.464Z,99200.00
2023-04-16T05:49:11.859Z,99210.00
2023-04-16T05:50:11.511Z,99206.00
2023-04-16T05:51:11.511Z,99207.00
2023-04-16T05:52:11.524Z,99209.00
2023-04-16T05:53:11.557Z,99208.00
2023-04-16T05:54:11.576Z,99208.00
2023-04-16T05:55:11.629Z,99216.00
2023-04-16T05:56:11.620Z,99212.00
2023-04-16T05:57:11.656Z,99215.00
2023-04-16T05:58:11.674Z,99215.00
2023-04-16T05:59:11.988Z,99217.00
2023-04-16T06:00:11.646Z,99214.00
2023-04-16T06:01:11.658Z,99223.00
2023-04-16T06:02:11.767Z,99224.00
2023-04-16T06:03:11.956Z,99221.00
2023-04-16T06:04:11.964Z,99217.00
2023-04-16T06:05:11.766Z,99217.00
2023-04-16T06:06:11.754Z,99226.00
2023-04-16T06:07:11.745Z,99224.00
2023-04-16T06:08:11.735Z,99225.00
2023-04-16T06:09:11.981Z,99220.00
2023-04-16T06:10:11.763Z,99221.00
2023-04-16T06:11:11.780Z,99224.00
2023-04-16T06:12:11.795Z,99221.00
2023-04-16T06:13:11.779Z,99222.00
2023-04-16T06:14:11.849Z,99223.00
2023-04-16T06:15:11.834Z,99228.00
2023-04-16T06:16:11.822Z,99224.00
2023-04-16T06:17:11.810Z,99226.00
2023-04-16T06:18:11.819Z,99225.00
2023-04-16T06:19:12.004Z,99225.00
2023-04-16T06:20:11.804Z,99226.00
2023-04-16T06:21:11.821Z,99227.00
2023-04-16T06:22:11.829Z,99232.00
2023-04-16T06:23:11.852Z,99232.00
2023-04-16T06:24:11.882Z,99226.00
2023-04-16T06:25:11.971Z,99231.00
2023-04-16T06:26:11.914Z,99233.00
2023-04-16T06:27:12.132Z,99231.00
2023-04-16T06:28:11.921Z,99233.00
2023-04-16T06:29:12.042Z,99234.00
2023-04-16T06:30:11.976Z,99231.00
2023-04-16T06:31:11.962Z,99234.00
2023-04-16T06:32:11.952Z,99234.00
2023-04-16T06:33:11.972Z,99229.00
2023-04-16T06:34:11.991Z,99237.00
2023-04-16T06:35:12.011Z,99231.00
2023-04-16T06:36:12.046Z,99233.00
2023-04-16T06:37:12.020Z,99237.00
2023-04-16T06:38:12.005Z,99237.00
2023-04-16T06:39:12.203Z,99241.00
2023-04-16T06:40:12.060Z,99232.00
2023-04-16T06:41:12.093Z,99238.00
2023-04-16T06:42:12.103Z,99241.00
2023-04-16T06:43:12.144Z,99243.00
2023-04-16T06:44:12.154Z,99240.00
2023-04-16T06:45:12.169Z,99241.00
2023-04-16T06:46:12.224Z,99243.00
2023-04-16T06:47:12.301Z,99245.00
2023-04-16T06:48:12.229Z,99244.00
2023-04-16T06:49:12.251Z,99243.00
2023-04-16T06:50:12.281Z,99245.00
2023-04-16T06:51:12.266Z,99241.00
2023-04-16T06:52:12.291Z,99246.00
2023-04-16T06:53:12.283Z,99245.00
2023-04-16T06:54:12.269Z,99246.00
2023-04-16T06:55:12.294Z,99249.00
2023-04-16T06:56:12.308Z,99245.00
2023-04-16T06:57:12.342Z,99248.00
2023-04-16T06:58:12.364Z,99246.00
2023-04-16T06:59:12.385Z,99249.00
2023-04-16T07:00:12.408Z,99248.00
2023-04-16T07:01:12.475Z,99242.00
2023-04-16T07:02:12.505Z,99250.00
2023-04-16T07:03:12.691Z,99249.00
2023-04-16T07:04:12.487Z,99246.00
2023-04-16T07:05:12.452Z,99251.00
2023-04-16T07:06:12.452Z,99254.00
2023-04-16T07:07:12.455Z,99254.00
2023-04-16T07:08:12.463Z,99250.00
2023-04-16T07:09:12.512Z,99248.00
2023-04-16T07:10:12.488Z,99247.00
2023-04-16T07:11:12.508Z,99251.00
2023-04-16T07:12:12.536Z,99246.00
2023-04-16T07:13:12.544Z,99256.00
2023-04-16T07:14:12.578Z,99254.00
2023-04-16T07:15:12.610Z,99252.00
2023-04-16T07:16:12.628Z,99252.00
2023-04-16T07:17:12.613Z,99249.00
2023-04-16T07:18:12.695Z,99254.00
2023-04-16T07:19:12.701Z,99249.00
2023-04-16T07:20:12.674Z,99254.00
2023-04-16T07:21:12.689Z,99256.00
2023-04-16T07:22:12.721Z,99256.00
2023-04-16T07:23:12.752Z,99253.00
2023-04-16T07:24:12.801Z,99260.00
2023-04-16T07:25:12.812Z,99254.00
2023-04-16T07:26:12.840Z,99256.00
2023-04-16T07:27:12.878Z,99258.00
2023-04-16T07:28:12.891Z,99261.00
2023-04-16T07:29:12.911Z,99264.00
2023-04-16T07:30:12.953Z,99264.00
2023-04-16T07:31:12.923Z,99264.00
2023-04-16T07:32:14.773Z,99265.00
2023-04-16T07:33:12.972Z,99262.00
2023-04-16T07:34:12.996Z,99267.00
2023-04-16T07:35:12.976Z,99271.00
2023-04-16T07:36:13.003Z,99270.00
2023-04-16T07:37:13.045Z,99269.00
2023-04-16T07:38:13.017Z,99272.00
2023-04-16T07:39:13.048Z,99274.00
2023-04-16T07:40:13.075Z,99272.00
2023-04-16T07:41:13.317Z,99271.00
2023-04-16T07:42:13.103Z,99272.00
2023-04-16T07:43:13.131Z,99273.00
2023-04-16T07:44:13.401Z,99278.00
2023-04-16T07:45:13.159Z,99274.00
2023-04-16T07:46:13.285Z,99276.00
2023-04-16T07:47:13.198Z,99280.00
2023-04-16T07:48:13.233Z,99278.00
2023-04-16T07:49:13.274Z,99277.00
2023-04-16T07:50:13.350Z,99279.00
2023-04-16T07:51:13.328Z,99279.00
2023-04-16T07:52:13.350Z,99278.00
2023-04-16T07:53:13.369Z,99281.00
2023-04-16T07:54:13.376Z,99283.00
2023-04-16T07:55:13.398Z,99283.00
2023-04-16T07:56:13.388Z,99280.00
2023-04-16T07:57:13.397Z,99281.00
2023-04-16T07:58:13.397Z,99275.00
2023-04-16T08:00:13.372Z,99285.00
2023-04-16T08:01:13.400Z,99284.00
2023-04-16T08:02:13.568Z,99285.00
2023-04-16T08:03:13.557Z,99290.00
2023-04-16T08:04:13.501Z,99287.00
2023-04-16T08:05:13.562Z,99291.00
2023-04-16T08:06:13.447Z,99288.00
2023-04-16T08:07:13.456Z,99286.00
2023-04-16T08:08:13.473Z,99293.00
2023-04-16T08:09:13.499Z,99292.00
2023-04-16T08:10:13.488Z,99289.00
2023-04-16T08:11:13.490Z,99290.00
2023-04-16T08:12:13.532Z,99287.00
2023-04-16T08:13:13.540Z,99294.00
2023-04-16T08:14:13.566Z,99295.00
2023-04-16T08:15:13.574Z,99298.00
2023-04-16T08:16:13.664Z,99298.00
2023-04-16T08:17:13.613Z,99295.00
2023-04-16T08:18:13.603Z,99296.00
2023-04-16T08:19:13.624Z,99300.00
2023-04-16T08:20:16.350Z,99297.00
2023-04-16T08:21:13.673Z,99300.00
2023-04-16T08:22:13.732Z,99301.00
2023-04-16T08:23:13.689Z,99301.00
2023-04-16T08:24:13.721Z,99297.00
2023-04-16T08:25:13.744Z,99303.00
2023-04-16T08:26:13.776Z,99304.00
2023-04-16T08:27:19.429Z,99305.00
2023-04-16T08:28:13.806Z,99306.00
2023-04-16T08:29:13.836Z,99303.00
2023-04-16T08:30:14.071Z,99306.00
2023-04-16T08:31:13.892Z,99311.00
2023-04-16T08:32:13.881Z,99312.00
2023-04-16T08:33:13.933Z,99314.00
2023-04-16T08:34:13.900Z,99314.00
2023-04-16T08:35:13.937Z,99316.00
2023-04-16T08:36:13.932Z,99316.00
2023-04-16T08:37:13.948Z,99316.00
2023-04-16T08:38:13.945Z,99314.00
2023-04-16T08:39:13.949Z,99317.00
2023-04-16T08:40:13.981Z,99322.00
2023-04-16T08:41:14.012Z,99319.00
2023-04-16T08:42:14.048Z,99317.00
2023-04-16T08:43:14.081Z,99322.00
2023-04-16T08:44:14.299Z,99322.00
2023-04-16T08:45:14.086Z,99320.00
2023-04-16T08:46:14.127Z,99318.00
2023-04-16T08:47:14.102Z,99321.00
2023-04-16T08:48:14.136Z,99328.00
2023-04-16T08:49:14.169Z,99326.00
2023-04-16T08:50:14.163Z,99322.00
2023-04-16T08:51:14.144Z,99326.00
2023-04-16T08:52:14.172Z,99328.00
2023-04-16T08:53:14.187Z,99330.00
2023-04-16T08:54:14.299Z,99330.00
2023-04-16T08:55:14.231Z,99333.00
2023-04-16T08:56:14.249Z,99333.00
2023-04-16T08:57:14.236Z,99331.00
2023-04-16T08:58:14.253Z,99327.00
2023-04-16T08:59:14.298Z,99332.00
2023-04-16T09:00:14.325Z,99327.00
2023-04-16T09:01:14.532Z,99333.00
2023-04-16T09:02:14.439Z,99337.00
2023-04-16T09:03:14.527Z,99334.00
2023-04-16T09:04:14.512Z,99335.00
2023-04-16T09:05:14.392Z,99338.00
2023-04-16T09:06:14.415Z,99341.00
2023-04-16T09:07:14.400Z,99346.00
2023-04-16T09:08:14.428Z,99343.00
2023-04-16T09:09:14.442Z,99350.00
2023-04-16T09:10:14.500Z,99345.00
2023-04-16T09:11:14.466Z,99348.00
2023-04-16T09:12:14.457Z,99349.00
2023-04-16T09:13:14.467Z,99347.00
2023-04-16T09:14:14.464Z,99345.00
2023-04-16T09:15:14.492Z,99350.00
2023-04-16T09:16:14.547Z,99355.00
2023-04-16T09:17:14.511Z,99356.00
2023-04-16T09:18:14.539Z,99351.00
2023-04-16T09:19:14.573Z,99358.00
2023-04-16T09:20:14.581Z,99359.00
2023-04-16T09:21:14.618Z,99358.00
2023-04-16T09:22:14.593Z,99359.00
2023-04-16T09:23:14.621Z,99358.00
2023-04-16T09:24:14.654Z,99360.00
2023-04-16T09:25:14.684Z,99363.00
2023-04-16T09:26:14.730Z,99364.00
2023-04-16T09:27:14.698Z,99366.00
2023-04-16T09:28:14.714Z,99364.00
2023-04-16T09:29:14.943Z,99371.00
2023-04-16T09:30:14.734Z,99367.00
2023-04-16T09:31:14.760Z,99369.00
2023-04-16T09:32:14.916Z,99367.00
2023-04-16T09:33:14.781Z,99372.00
2023-04-16T09:34:14.768Z,99375.00
2023-04-16T09:35:14.789Z,99368.00
2023-04-16T09:36:14.843Z,99369.00
2023-04-16T09:37:14.825Z,99372.00
2023-04-16T09:38:14.876Z,99370.00
2023-04-16T09:39:14.863Z,99374.00
2023-04-16T09:40:14.874Z,99369.00
2023-04-16T09:41:14.906Z,99372.00
2023-04-16T09:42:14.918Z,99372.00
2023-04-16T09:43:14.928Z,99371.00
2023-04-16T09:44:14.949Z,99371.00
2023-04-16T09:45:14.983Z,99376.00
2023-04-16T09:46:15.046Z,99376.00
2023-04-16T09:47:15.030Z,99376.00
2023-04-16T09:48:15.048Z,99377.00
2023-04-16T09:49:15.081Z,99377.00
2023-04-16T09:50:17.278Z,99380.00
2023-04-16T09:51:15.087Z,99378.00
2023-04-16T09:52:15.056Z,99382.00
2023-04-16T09:53:15.069Z,99380.00
2023-04-16T09:54:15.083Z,99385.00
2023-04-16T09:55:15.115Z,99389.00
2023-04-16T09:56:15.160Z,99386.00
2023-04-16T09:57:15.166Z,99383.00
2023-04-16T09:58:15.218Z,99384.00
2023-04-16T09:59:15.185Z,99386.00
2023-04-16T10:00:15.218Z,99387.00
2023-04-16T10:01:15.281Z,99388.00
2023-04-16T10:02:16.583Z,99388.00
2023-04-16T10:03:15.307Z,99390.00
2023-04-16T10:04:15.261Z,99387.00
2023-04-16T10:05:15.263Z,99391.00
2023-04-16T10:06:15.279Z,99385.00
2023-04-16T10:07:15.287Z,99388.00
2023-04-16T10:08:15.300Z,99393.00
2023-04-16T10:09:15.311Z,99399.00
2023-04-16T10:10:15.335Z,99396.00
2023-04-16T10:11:15.569Z,99398.00
2023-04-16T10:12:15.346Z,99399.00
2023-04-16T10:13:15.368Z,99398.00
2023-04-16T10:14:15.414Z,99400.00
2023-04-16T10:15:15.423Z,99406.00
2023-04-16T10:16:15.489Z,99408.00
2023-04-16T10:17:15.499Z,99403.00
2023-04-16T10:18:15.517Z,99402.00
2023-04-16T10:19:15.502Z,99406.00
2023-04-16T10:20:17.143Z,99406.00
2023-04-16T10:21:15.510Z,99405.00
2023-04-16T10:22:15.524Z,99407.00
2023-04-16T10:23:15.542Z,99407.00
2023-04-16T10:24:15.570Z,99409.00
2023-04-16T10:25:15.605Z,99411.00
2023-04-16T10:26:15.618Z,99416.00
2023-04-16T10:27:15.624Z,99415.00
2023-04-16T10:28:15.612Z,99412.00
2023-04-16T10:29:15.634Z,99414.00
2023-04-16T10:30:15.693Z,99415.00
2023-04-16T10:31:15.868Z,99415.00
2023-04-16T10:32:15.637Z,99412.00
2023-04-16T10:33:15.625Z,99416.00
2023-04-16T10:34:15.650Z,99412.00
2023-04-16T10:35:15.659Z,99413.00
2023-04-16T10:36:15.702Z,99413.00
2023-04-16T10:37:15.727Z,99414.00
2023-04-16T10:38:15.767Z,99417.00
2023-04-16T10:39:17.210Z,99421.00
2023-04-16T10:40:15.790Z,99418.00
2023-04-16T10:41:15.805Z,99421.00
2023-04-16T10:42:15.823Z,99417.00
2023-04-16T10:43:15.847Z,99422.00
2023-04-16T10:44:15.864Z,99420.00
2023-04-16T10:45:15.878Z,99421.00
2023-04-16T10:46:15.921Z,99419.00
2023-04-16T10:47:15.898Z,99420.00
2023-04-16T10:48:15.886Z,99419.00
2023-04-16T10:49:15.911Z,99419.00
2023-04-16T10:50:15.933Z,99418.00
2023-04-16T10:51:15.952Z,99418.00
2023-04-16T10:52:15.971Z,99418.00
2023-04-16T10:53:15.970Z,99418.00
2023-04-16T10:54:15.995Z,99420.00
2023-04-16T10:55:15.976Z,99420.00
2023-04-16T10:56:15.964Z,99417.00
2023-04-16T10:57:16.003Z,99419.00
2023-04-16T10:58:15.984Z,99419.00
2023-04-16T10:59:16.007Z,99419.00
2023-04-16T11:00:16.024Z,99422.00
2023-04-16T11:01:16.019Z,99418.00
2023-04-16T11:02:16.270Z,99419.00
2023-04-16T11:03:16.121Z,99418.00
2023-04-16T11:04:16.115Z,99417.00
2023-04-16T11:05:16.041Z,99418.00
2023-04-16T11:06:16.049Z,99416.00
2023-04-16T11:07:16.104Z,99418.00
2023-04-16T11:08:16.119Z,99421.00
2023-04-16T11:09:16.141Z,99420.00
2023-04-16T11:10:16.267Z,99420.00
2023-04-16T11:11:16.179Z,99424.00
2023-04-16T11:12:16.195Z,99420.00
2023-04-16T11:13:16.171Z,99419.00
2023-04-16T11:14:16.205Z,99419.00
2023-04-16T11:15:16.472Z,99423.00
2023-04-16T11:16:16.261Z,99421.00
2023-04-16T11:17:16.265Z,99421.00
2023-04-16T11:18:16.303Z,99423.00
2023-04-16T11:19:16.321Z,99423.00
2023-04-16T11:20:18.901Z,99422.00
2023-04-16T11:21:16.363Z,99422.00
2023-04-16T11:22:16.344Z,99425.00
2023-04-16T11:23:16.362Z,99423.00
2023-04-16T11:24:16.618Z,99422.00
2023-04-16T11:25:16.422Z,99428.00
2023-04-16T11:26:16.399Z,99425.00
2023-04-16T11:27:16.408Z,99419.00
2023-04-16T11:28:16.660Z,99420.00
2023-04-16T11:29:16.442Z,99423.00
2023-04-16T11:30:16.441Z,99422.00
2023-04-16T11:31:16.549Z,99423.00
2023-04-16T11:32:16.478Z,99425.00
2023-04-16T11:33:16.479Z,99428.00
2023-04-16T11:34:16.485Z,99426.00
2023-04-16T11:35:16.454Z,99430.00
2023-04-16T11:36:16.438Z,99428.00
2023-04-16T11:37:16.458Z,99428.00
2023-04-16T11:38:16.470Z,99430.00
2023-04-16T11:39:16.495Z,99431.00
2023-04-16T11:40:16.535Z,99430.00
2023-04-16T11:41:16.533Z,99430.00
2023-04-16T11:42:16.583Z,99430.00
2023-04-16T11:43:16.795Z,99427.00
2023-04-16T11:44:17.125Z,99428.00
2023-04-16T11:45:16.599Z,99431.00